Hickory Regional Airport
KHKY : now visible

Airfield :











YOU CAN JOIN US ON...

 
LOGIN :

Register | Disclaimer

   EN    FR    IT 

 









Legend :    VFR   Marginal VFR   IFR   Intensive IFR   Very Intensive IFR
Visi :
Ceiling :
>= 8 km
>= 3000ft
5 to 8 km
1000 to 3000 ft
1500m to 5 km
500 to 1000 ft
800 to 1500m
200 to 500 ft
< 800m
< 200 ft
Symbols :   Thunderstorms  Fog  Heavy snow  Heavy precipitations  Wind > 20 kt






- Airport Elevation : 1190 ft
- IATA code : HKY


KHKY - Hickory Regional

CURRENT METAR :
  • 201453Z VRB03KT 10SM FEW027 24/17 A3006 RMK AO2 SLP157 T02440167 51002

EXPIRED METARs :
  • 201353Z 29004KT 10SM CLR 22/17 A3006 RMK AO2 SLP158 T02170167
  • 201253Z 33004KT 10SM CLR 20/17 A3005 RMK AO2 SLP158 T02000167
  • 201153Z 29003KT 5SM BR BKN041 17/16 A3005 RMK AO2 SLP157 T01670161 10183 20156 50009
  • 201120Z 00000KT 5SM BR FEW001 BKN030 BKN038 17/16 A3005 RMK AO2 T01670156
  • 201101Z 00000KT 3/4SM BR FEW001 BKN030 BKN037 16/16 A3005 RMK AO2 T01610156
  • 201053Z 00000KT 9SM BKN030 OVC037 16/16 A3005 RMK AO2 SLP157 T01610156

TAF KHKY
Valid from the 20 at 14:00 until the 21 at 12:00 UTC


201336Z 2014/2112 33004KT P6SM SKC
FM201600 09004KT P6SM FEW027 SCT040
FM210100 00000KT P6SM FEW045
FM210900 00000KT 3SM BR SCT003
KZTL FIR / North America



MET'MAP, your aeronautical weather chart ! - Copyright ORBIFLY December 2007 - Disclaimer

ORBIFLY MET'MAP TEAM :

Programming & Development : Alexandra Zaïnal
Original concept : Baudouin d'Aumeries
Technical & hardware support : Manuel Goepfert
Assistance : Marc-Olivier Méhu




SOURCES & CREDITS :

   NOAA       Earth
Advisory